Time;durP1;ratioP1;P1;durP2;ratioP2;P2;SDS_P1;SDS_P2;PMS_P1;PMS_P2;Temp;Humidity;BMP_temperature;BMP_pressure;BME280_temperature;BME280_humidity;BME280_pressure;Samples;Min_cycle;Max_cycle;Signal;HPM_P1;HPM_P2
2024/03/15 00:01:17;;;;;;;11.23;4.85;;;;;;;15.23;84.94;100471.25;5080147;28;20586;-61
2024/03/15 00:03:45;;;;;;;11.23;4.20;;;;;;;15.46;84.06;100477.13;5089319;28;20056;-61
2024/03/15 00:06:13;;;;;;;9.57;4.18;;;;;;;15.33;84.59;100476.31;5088191;28;20047;-56
2024/03/15 00:08:41;;;;;;;10.73;3.38;;;;;;;15.45;84.58;100481.88;5088732;28;20052;-60
2024/03/15 00:11:08;;;;;;;9.63;3.72;;;;;;;15.26;85.74;100483.59;5089416;28;20048;-59
2024/03/15 00:13:36;;;;;;;10.93;3.58;;;;;;;15.16;86.22;100478.56;5089657;28;20048;-59
2024/03/15 00:16:06;;;;;;;10.57;3.60;;;;;;;15.58;84.45;100485.41;5069778;28;20052;-61
2024/03/15 00:18:36;;;;;;;8.07;3.65;;;;;;;15.63;82.72;100490.72;5082312;28;20052;-56
2024/03/15 00:21:04;;;;;;;7.40;3.08;;;;;;;15.64;84.01;100486.75;5088200;28;20523;-60
2024/03/15 00:23:32;;;;;;;12.77;3.83;;;;;;;15.36;85.53;100477.59;5089776;28;20051;-61
2024/03/15 00:25:59;;;;;;;9.00;3.72;;;;;;;15.35;85.23;100482.31;5086571;28;20052;-58
2024/03/15 00:28:27;;;;;;;8.55;3.50;;;;;;;15.36;85.55;100488.69;5089310;28;20543;-59
2024/03/15 00:30:54;;;;;;;12.52;2.92;;;;;;;15.12;86.90;100491.50;5089751;28;20454;-62
2024/03/15 00:33:22;;;;;;;9.55;3.13;;;;;;;15.42;85.71;100484.53;5089205;28;20106;-59
2024/03/15 00:35:49;;;;;;;9.13;3.50;;;;;;;15.25;85.94;100482.00;5088799;28;20545;-62
2024/03/15 00:38:18;;;;;;;10.43;3.40;;;;;;;15.22;86.27;100486.28;5087267;28;20044;-59
2024/03/15 00:40:45;;;;;;;9.52;3.65;;;;;;;15.07;87.17;100483.41;5078127;28;20064;-59
2024/03/15 00:43:15;;;;;;;8.50;3.35;;;;;;;15.06;87.85;100481.81;5073829;28;20052;-61
2024/03/15 00:45:44;;;;;;;9.13;3.70;;;;;;;15.22;87.01;100491.03;5087817;28;20047;-59
2024/03/15 00:48:11;;;;;;;7.65;3.10;;;;;;;15.29;86.29;100494.03;5073477;28;20048;-58
2024/03/15 00:50:39;;;;;;;10.95;3.60;;;;;;;15.24;86.92;100483.97;5070562;28;20040;-57
2024/03/15 00:53:07;;;;;;;8.93;3.33;;;;;;;15.21;86.99;100490.22;5081336;28;20052;-57
2024/03/15 00:55:34;;;;;;;11.30;2.80;;;;;;;15.00;88.35;100492.31;5088857;28;20116;-60
2024/03/15 00:58:01;;;;;;;11.73;3.13;;;;;;;15.04;88.56;100489.66;5109523;28;20047;-60
2024/03/15 01:00:29;;;;;;;12.77;3.75;;;;;;;15.23;87.66;100485.13;5107846;28;20048;-59
2024/03/15 01:02:57;;;;;;;8.18;3.30;;;;;;;14.90;89.25;100494.75;5083020;28;20052;-59
2024/03/15 01:05:25;;;;;;;12.85;3.35;;;;;;;15.03;88.63;100479.75;5085292;28;20102;-60
2024/03/15 01:07:52;;;;;;;9.40;3.00;;;;;;;15.00;89.60;100494.28;5087953;28;20056;-60
2024/03/15 01:10:20;;;;;;;7.72;2.90;;;;;;;15.18;88.87;100485.38;5087268;28;20062;-58
2024/03/15 01:12:47;;;;;;;8.63;2.72;;;;;;;15.12;88.98;100485.94;5089511;28;20055;-58
2024/03/15 01:15:15;;;;;;;6.43;2.50;;;;;;;14.99;89.51;100489.91;5089133;28;20056;-59
2024/03/15 01:17:43;;;;;;;7.63;2.63;;;;;;;15.17;89.37;100482.94;5089266;28;20056;-59
2024/03/15 01:20:11;;;;;;;7.63;2.50;;;;;;;15.13;89.29;100470.94;5088595;28;20044;-58
2024/03/15 01:22:41;;;;;;;6.82;2.67;;;;;;;15.10;88.98;100475.19;5086667;28;20067;-61
2024/03/15 01:25:08;;;;;;;5.32;2.33;;;;;;;15.14;89.60;100472.53;5087036;28;20047;-59
2024/03/15 01:27:35;;;;;;;5.85;2.42;;;;;;;14.83;90.89;100475.94;5086952;28;20649;-59
2024/03/15 01:30:04;;;;;;;9.77;3.20;;;;;;;15.01;90.58;100468.19;5075028;28;20052;-58
2024/03/15 01:32:32;;;;;;;5.93;2.78;;;;;;;15.18;89.60;100470.69;5067874;28;20554;-59
2024/03/15 01:34:59;;;;;;;5.68;2.38;;;;;;;15.00;90.06;100466.53;5068150;28;20049;-61
2024/03/15 01:37:26;;;;;;;11.55;2.75;;;;;;;14.81;91.55;100458.84;5076929;28;20062;-59
2024/03/15 01:39:54;;;;;;;7.10;2.50;;;;;;;14.99;91.44;100460.22;5088070;28;20075;-60
2024/03/15 01:42:21;;;;;;;6.32;2.70;;;;;;;15.15;89.78;100460.31;5086760;28;20056;-58
2024/03/15 01:44:51;;;;;;;8.00;2.38;;;;;;;15.19;90.14;100464.78;5087734;28;20056;-58
2024/03/15 01:47:19;;;;;;;4.80;2.38;;;;;;;15.01;91.41;100468.97;5070630;28;20056;-59
2024/03/15 01:49:47;;;;;;;5.30;2.40;;;;;;;14.96;91.93;100458.13;5082333;28;20062;-58
2024/03/15 01:52:15;;;;;;;8.65;2.53;;;;;;;14.90;92.01;100467.84;5068302;28;20056;-61
2024/03/15 01:54:44;;;;;;;5.78;2.28;;;;;;;15.07;91.87;100464.81;5067477;28;20055;-58
2024/03/15 01:57:16;;;;;;;5.80;2.33;;;;;;;15.07;92.41;100462.03;5068679;28;20048;-58
2024/03/15 01:59:44;;;;;;;6.75;2.25;;;;;;;15.21;91.42;100454.16;5071788;28;20063;-59
2024/03/15 02:02:14;;;;;;;8.80;2.40;;;;;;;15.00;92.10;100461.81;5083958;28;20063;-60
2024/03/15 02:04:46;;;;;;;5.00;1.95;;;;;;;15.19;91.87;100459.25;5088367;28;20080;-59
2024/03/15 02:07:13;;;;;;;6.78;2.33;;;;;;;15.14;91.11;100453.94;5088454;28;20052;-59
2024/03/15 02:09:40;;;;;;;6.70;2.38;;;;;;;15.17;91.50;100461.56;5088200;28;20044;-59
2024/03/15 02:12:08;;;;;;;6.00;2.33;;;;;;;15.12;91.40;100459.03;5086110;28;20052;-58
2024/03/15 02:14:35;;;;;;;6.38;2.38;;;;;;;15.20;91.26;100468.38;5088155;28;20052;-59
2024/03/15 02:17:03;;;;;;;7.13;2.45;;;;;;;15.16;91.57;100470.22;5086629;28;20130;-59
2024/03/15 02:19:30;;;;;;;7.78;2.55;;;;;;;14.93;92.53;100467.16;5088122;28;20056;-60
2024/03/15 02:21:57;;;;;;;5.82;2.58;;;;;;;14.98;92.32;100471.63;5085677;28;20048;-59
2024/03/15 02:24:24;;;;;;;5.53;2.13;;;;;;;15.13;92.19;100471.72;5087623;28;20055;-61
2024/03/15 02:26:51;;;;;;;4.63;2.22;;;;;;;15.00;92.99;100464.59;5087705;28;20059;-60
2024/03/15 02:29:19;;;;;;;6.30;2.20;;;;;;;14.91;93.98;100469.44;5086091;28;20048;-59
2024/03/15 02:31:46;;;;;;;6.22;2.10;;;;;;;14.86;93.85;100455.00;5077858;28;20052;-61
2024/03/15 02:34:14;;;;;;;3.78;2.10;;;;;;;14.90;94.12;100459.53;5087387;28;20060;-58
2024/03/15 02:36:42;;;;;;;6.20;2.30;;;;;;;14.63;95.93;100458.25;5087538;28;20056;-57
2024/03/15 02:39:09;;;;;;;6.82;2.30;;;;;;;14.71;96.13;100467.63;5086861;28;20058;-61
2024/03/15 02:41:37;;;;;;;4.88;2.15;;;;;;;14.88;95.11;100475.69;5087182;28;20052;-59
2024/03/15 02:44:05;;;;;;;5.43;2.17;;;;;;;14.90;95.91;100467.84;5087390;28;20133;-58
2024/03/15 02:46:32;;;;;;;5.50;2.33;;;;;;;15.07;94.81;100477.88;5083537;28;20502;-60
2024/03/15 02:49:00;;;;;;;5.72;2.50;;;;;;;14.90;95.32;100489.22;5073212;28;20044;-59
2024/03/15 02:51:27;;;;;;;4.57;2.10;;;;;;;14.79;96.34;100480.56;5087325;28;20059;-60
2024/03/15 02:53:55;;;;;;;7.25;2.30;;;;;;;14.83;96.92;100473.16;5087089;28;20047;-60
2024/03/15 02:56:22;;;;;;;4.65;2.33;;;;;;;14.78;97.11;100470.63;5087305;28;20058;-59
2024/03/15 02:58:49;;;;;;;5.47;2.17;;;;;;;14.81;97.30;100469.94;5085990;28;20056;-59
2024/03/15 03:01:16;;;;;;;9.13;2.10;;;;;;;14.80;97.00;100473.06;5087147;28;20419;-58
2024/03/15 03:03:44;;;;;;;6.45;2.30;;;;;;;14.83;97.61;100477.91;5087134;28;20059;-59
2024/03/15 03:06:12;;;;;;;4.82;2.10;;;;;;;15.00;96.47;100475.69;5087004;28;20052;-59
2024/03/15 03:08:39;;;;;;;5.53;1.88;;;;;;;14.95;96.13;100489.78;5087218;28;20056;-58
2024/03/15 03:11:06;;;;;;;4.28;1.73;;;;;;;15.11;96.25;100478.78;5087080;28;20059;-59
2024/03/15 03:13:34;;;;;;;3.60;1.80;;;;;;;15.03;96.30;100488.06;5079660;28;20566;-59
2024/03/15 03:16:01;;;;;;;7.13;1.92;;;;;;;14.87;97.18;100484.38;5066070;28;20134;-61
2024/03/15 03:18:29;;;;;;;5.72;2.00;;;;;;;14.76;97.70;100489.56;5064840;28;20060;-59
2024/03/15 03:20:56;;;;;;;3.03;1.50;;;;;;;14.85;97.40;100493.03;5083510;28;20056;-59
2024/03/15 03:23:24;;;;;;;4.50;1.92;;;;;;;14.83;97.30;100495.34;5084233;28;20059;-59
2024/03/15 03:25:51;;;;;;;4.88;1.75;;;;;;;15.02;96.34;100491.97;5075353;28;20056;-58
2024/03/15 03:28:18;;;;;;;5.05;1.83;;;;;;;14.92;96.43;100490.50;5077593;28;20051;-59
2024/03/15 03:30:46;;;;;;;4.82;1.67;;;;;;;15.12;95.63;100489.53;5071825;28;20051;-58
2024/03/15 03:33:13;;;;;;;4.38;1.77;;;;;;;15.14;95.28;100483.63;5085987;28;20052;-58
2024/03/15 03:35:41;;;;;;;4.80;1.70;;;;;;;15.32;93.85;100490.53;5086455;28;20052;-59
2024/03/15 03:38:08;;;;;;;3.38;1.67;;;;;;;15.20;94.18;100496.13;5084886;28;20056;-58
2024/03/15 03:40:35;;;;;;;3.92;1.50;;;;;;;14.89;95.79;100504.25;5086710;28;20044;-59
2024/03/15 03:43:03;;;;;;;5.85;1.58;;;;;;;14.89;95.95;100502.25;5084157;28;20074;-58
2024/03/15 03:45:30;;;;;;;4.63;1.92;;;;;;;15.07;96.28;100509.19;5066784;28;20052;-60
2024/03/15 03:47:57;;;;;;;3.83;1.67;;;;;;;15.23;94.67;100503.75;5066617;28;20760;-59
2024/03/15 03:50:25;;;;;;;4.15;1.65;;;;;;;15.11;94.87;100507.34;5065277;28;20048;-60
2024/03/15 03:52:52;;;;;;;4.82;1.70;;;;;;;15.25;94.30;100505.03;5072669;28;20052;-59
2024/03/15 03:55:20;;;;;;;4.13;1.88;;;;;;;15.27;93.92;100507.44;5086463;28;20083;-58
2024/03/15 03:57:48;;;;;;;2.88;1.60;;;;;;;14.99;95.62;100504.59;5086978;28;20048;-59
2024/03/15 04:00:16;;;;;;;4.18;1.70;;;;;;;15.09;95.44;100512.44;5086129;28;20925;-58
2024/03/15 04:02:45;;;;;;;6.10;1.80;;;;;;;15.05;95.41;100510.69;5086530;28;20059;-59
2024/03/15 04:05:15;;;;;;;2.58;1.40;;;;;;;15.01;95.41;100507.00;5083755;28;20048;-57
2024/03/15 04:07:44;;;;;;;2.97;1.25;;;;;;;15.02;95.72;100514.16;5075518;28;20531;-59
2024/03/15 04:10:13;;;;;;;4.38;1.58;;;;;;;15.11;94.86;100523.19;5087329;28;20079;-59
2024/03/15 04:12:45;;;;;;;5.75;1.30;;;;;;;15.07;95.24;100514.75;5088581;28;20654;-60
2024/03/15 04:15:14;;;;;;;3.55;1.20;;;;;;;14.96;94.90;100521.13;5087884;28;20048;-60
2024/03/15 04:17:57;;;;;;;3.03;1.30;;;;;;;14.99;94.92;100512.91;5088217;28;20059;-58
2024/03/15 04:20:26;;;;;;;3.38;1.38;;;;;;;14.92;95.58;100515.47;5090058;28;20082;-60
2024/03/15 04:22:54;;;;;;;4.13;1.80;;;;;;;14.82;96.53;100524.22;5088780;28;20056;-60
2024/03/15 04:25:23;;;;;;;5.60;1.52;;;;;;;15.09;95.66;100519.94;5088035;28;20067;-59
2024/03/15 04:27:53;;;;;;;3.33;1.70;;;;;;;14.88;95.42;100520.06;5070566;28;20052;-59
2024/03/15 04:30:22;;;;;;;;;;;;;;;14.94;95.94;100518.66;5080842;28;20147;-58
2024/03/15 04:32:50;;;;;;;4.00;1.40;;;;;;;15.08;95.99;100527.44;5068455;28;19920;-59
2024/03/15 04:35:18;;;;;;;1.95;1.25;;;;;;;14.91;96.26;100515.78;5055915;28;20071;-59
2024/03/15 04:37:46;;;;;;;4.70;1.50;;;;;;;14.92;96.62;100515.47;5088049;28;20066;-58
2024/03/15 04:40:14;;;;;;;4.07;1.90;;;;;;;15.13;95.68;100529.19;5077406;28;20049;-59
2024/03/15 04:42:41;;;;;;;3.47;1.38;;;;;;;15.08;95.11;100530.22;5068925;28;20052;-60
2024/03/15 04:45:10;;;;;;;5.35;1.70;;;;;;;15.26;93.88;100516.91;5086780;28;20055;-59
2024/03/15 04:47:38;;;;;;;4.00;1.40;;;;;;;15.07;94.81;100525.84;5071589;28;20494;-60
2024/03/15 04:50:07;;;;;;;2.97;1.40;;;;;;;15.16;94.79;100529.31;5072392;28;20052;-59
2024/03/15 04:52:34;;;;;;;4.25;1.45;;;;;;;15.06;94.01;100520.66;5089292;28;20559;-59
2024/03/15 04:55:02;;;;;;;4.07;1.58;;;;;;;14.93;95.00;100522.59;5088739;28;20443;-59
2024/03/15 04:57:30;;;;;;;3.75;1.73;;;;;;;14.99;95.65;100526.78;5089701;28;20059;-58
2024/03/15 04:59:57;;;;;;;3.10;1.60;;;;;;;15.01;95.45;100527.22;5085911;28;20064;-58
2024/03/15 05:02:24;;;;;;;4.78;1.60;;;;;;;15.32;92.83;100532.19;5076026;28;20051;-60
2024/03/15 05:04:52;;;;;;;4.53;1.83;;;;;;;14.92;94.84;100539.59;5088928;28;20051;-58
2024/03/15 05:07:19;;;;;;;3.60;1.63;;;;;;;15.07;94.57;100522.25;5071056;28;20058;-59
2024/03/15 05:09:47;;;;;;;2.58;1.15;;;;;;;15.40;93.62;100531.25;5089071;28;20056;-59
2024/03/15 05:12:14;;;;;;;5.40;1.67;;;;;;;15.12;93.42;100538.66;5077526;28;20053;-60
2024/03/15 05:14:41;;;;;;;4.07;1.95;;;;;;;15.15;93.79;100532.44;5077855;28;20063;-58
2024/03/15 05:17:09;;;;;;;4.32;1.83;;;;;;;15.24;93.07;100531.13;5088384;28;20060;-59
2024/03/15 05:19:36;;;;;;;4.00;1.77;;;;;;;14.91;94.32;100536.00;5082094;28;20064;-58
2024/03/15 05:22:06;;;;;;;3.75;1.60;;;;;;;15.16;94.07;100537.63;5068465;28;20044;-58
2024/03/15 05:24:33;;;;;;;3.00;1.30;;;;;;;14.97;94.70;100537.41;5067920;28;20492;-59
2024/03/15 05:27:01;;;;;;;4.50;1.63;;;;;;;15.12;94.39;100533.94;5068431;28;20059;-62
2024/03/15 05:29:29;;;;;;;4.05;1.60;;;;;;;15.08;93.79;100541.31;5088295;28;20052;-59
2024/03/15 05:31:57;;;;;;;3.15;1.58;;;;;;;14.91;95.09;100540.75;5080179;28;20419;-60
2024/03/15 05:34:26;;;;;;;4.18;1.42;;;;;;;15.02;94.79;100537.19;5068358;28;20055;-59
2024/03/15 05:36:53;;;;;;;3.70;1.60;;;;;;;15.26;92.68;100537.16;5061942;28;20052;-61
2024/03/15 05:39:21;;;;;;;3.83;1.50;;;;;;;15.27;92.33;100535.19;5067687;28;20067;-60
2024/03/15 05:41:48;;;;;;;2.92;1.33;;;;;;;15.29;91.38;100536.44;5066520;28;20049;-58
2024/03/15 05:44:16;;;;;;;6.03;1.48;;;;;;;15.27;91.87;100543.53;5080004;28;20048;-59
2024/03/15 05:46:43;;;;;;;5.75;1.73;;;;;;;15.27;91.43;100538.75;5088126;28;20056;-58
2024/03/15 05:49:10;;;;;;;3.95;1.63;;;;;;;15.13;92.02;100532.75;5088246;28;20056;-59
2024/03/15 05:51:38;;;;;;;4.05;1.40;;;;;;;15.23;91.45;100542.59;5086366;28;20063;-58
2024/03/15 05:54:05;;;;;;;4.82;1.77;;;;;;;14.95;92.08;100539.72;5087453;28;20056;-59
2024/03/15 05:56:32;;;;;;;4.53;2.00;;;;;;;15.11;92.41;100548.16;5086309;28;20497;-60
2024/03/15 05:58:59;;;;;;;4.57;2.22;;;;;;;15.10;92.11;100546.53;5087757;28;20513;-58
2024/03/15 06:01:26;;;;;;;5.95;2.25;;;;;;;14.94;93.21;100545.63;5086079;28;20052;-59
2024/03/15 06:03:54;;;;;;;5.30;1.73;;;;;;;14.85;92.89;100540.19;5087645;28;20505;-60
2024/03/15 06:06:21;;;;;;;6.13;2.28;;;;;;;14.95;93.00;100536.13;5085620;28;20059;-60
2024/03/15 06:08:48;;;;;;;6.13;1.90;;;;;;;14.66;93.78;100539.94;5087915;28;20522;-61
2024/03/15 06:11:16;;;;;;;8.98;1.88;;;;;;;14.78;94.45;100548.28;5087403;28;20040;-61
2024/03/15 06:13:43;;;;;;;8.18;2.05;;;;;;;14.73;93.72;100556.00;5088056;28;20058;-61
2024/03/15 06:16:15;;;;;;;6.43;2.08;;;;;;;14.77;93.64;100560.50;5084806;28;20088;-59
2024/03/15 06:18:43;;;;;;;10.30;1.90;;;;;;;14.79;93.29;100568.47;5084548;28;20183;-59
2024/03/15 06:21:11;;;;;;;5.07;1.80;;;;;;;14.80;93.45;100579.25;5087589;28;20048;-59
2024/03/15 06:23:38;;;;;;;7.05;1.90;;;;;;;15.04;93.08;100570.94;5086941;28;20051;-62
2024/03/15 06:26:06;;;;;;;4.57;1.75;;;;;;;15.10;92.11;100577.84;5086752;28;20051;-60
2024/03/15 06:28:34;;;;;;;10.23;1.80;;;;;;;15.10;91.23;100586.16;5082040;28;20063;-61
2024/03/15 06:31:01;;;;;;;4.22;1.63;;;;;;;15.04;90.74;100587.56;5070693;28;20135;-60
2024/03/15 06:33:31;;;;;;;7.07;1.70;;;;;;;15.13;89.99;100591.03;5070358;28;20056;-58
2024/03/15 06:36:00;;;;;;;7.40;1.65;;;;;;;14.96;90.85;100591.25;5080703;28;20071;-58
2024/03/15 06:38:30;;;;;;;5.38;1.67;;;;;;;14.93;91.21;100597.50;5067036;28;20051;-61
2024/03/15 06:41:13;;;;;;;4.93;1.40;;;;;;;15.04;90.42;100589.53;5067753;28;20048;-58
2024/03/15 06:43:58;;;;;;;3.80;1.30;;;;;;;15.05;90.61;100593.91;5082833;28;20060;-59
2024/03/15 06:46:29;;;;;;;7.13;1.70;;;;;;;15.01;88.91;100596.56;5079398;28;20594;-59
2024/03/15 06:48:59;;;;;;;10.05;2.20;;;;;;;14.83;90.51;100599.91;5076085;28;20048;-59
2024/03/15 06:54:14;;;;;;;13.82;3.92;;;;;;;14.93;89.51;100614.13;5085688;28;20052;-59
2024/03/15 06:56:42;;;;;;;9.38;2.13;;;;;;;14.92;89.81;100608.94;5086726;28;20047;-62
2024/03/15 06:59:10;;;;;;;8.38;1.95;;;;;;;14.86;88.81;100604.75;5087346;28;20048;-58
2024/03/15 07:01:37;;;;;;;8.18;1.40;;;;;;;14.81;88.93;100614.13;5086203;28;20048;-60
2024/03/15 07:04:10;;;;;;;8.40;1.60;;;;;;;14.70;88.86;100618.47;5077342;28;20040;-59
2024/03/15 07:06:41;;;;;;;7.43;1.80;;;;;;;14.93;88.90;100608.59;5107167;28;20059;-57
2024/03/15 07:09:14;;;;;;;10.05;1.90;;;;;;;14.71;88.66;100610.97;5100858;28;20051;-63
2024/03/15 07:11:47;;;;;;;11.50;2.08;;;;;;;14.79;89.14;100619.19;5084057;28;20123;-61
2024/03/15 07:14:15;;;;;;;10.27;1.80;;;;;;;14.80;88.53;100611.69;5068347;28;20075;-58
2024/03/15 07:16:42;;;;;;;15.98;2.00;;;;;;;14.78;88.29;100625.91;5066825;28;20087;-60
2024/03/15 07:19:09;;;;;;;14.02;2.45;;;;;;;14.87;88.72;100623.03;5068130;28;20075;-59
2024/03/15 07:21:38;;;;;;;22.17;8.77;;;;;;;14.97;88.08;100631.72;5084867;28;20059;-61
2024/03/15 07:24:07;;;;;;;17.35;3.22;;;;;;;14.91;87.84;100624.75;5086557;28;20730;-60
2024/03/15 07:26:35;;;;;;;6.57;1.65;;;;;;;14.98;88.11;100638.06;5085654;28;20055;-59
2024/03/15 07:29:04;;;;;;;11.00;2.53;;;;;;;14.71;88.87;100631.22;5082432;28;20060;-57
2024/03/15 07:31:31;;;;;;;10.05;2.03;;;;;;;14.75;89.52;100637.66;5068285;28;20778;-59
2024/03/15 07:33:58;;;;;;;11.98;1.77;;;;;;;14.92;88.79;100636.66;5072811;28;20166;-62
2024/03/15 07:36:27;;;;;;;8.73;1.92;;;;;;;15.13;88.10;100632.63;5086616;28;20067;-62
2024/03/15 07:38:55;;;;;;;13.63;2.13;;;;;;;15.20;86.72;100641.19;5086723;28;20048;-61
2024/03/15 07:41:27;;;;;;;15.02;2.65;;;;;;;15.11;86.60;100643.28;5067376;28;20053;-61
2024/03/15 07:43:56;;;;;;;12.50;2.50;;;;;;;15.35;85.86;100634.16;5093577;28;20056;-62
2024/03/15 07:46:24;;;;;;;15.27;2.95;;;;;;;15.49;89.75;100627.13;5092121;28;20040;-60
2024/03/15 07:48:51;;;;;;;18.60;2.47;;;;;;;15.69;89.47;100637.28;5090650;28;20053;-61
2024/03/15 07:51:19;;;;;;;14.73;3.88;;;;;;;16.18;87.03;100632.41;5088041;28;20648;-63
2024/03/15 07:53:46;;;;;;;18.65;4.13;;;;;;;16.13;83.39;100637.41;5077045;28;20067;-63
2024/03/15 07:56:13;;;;;;;23.40;9.55;;;;;;;16.00;82.55;100636.66;5090285;28;20048;-61
2024/03/15 07:58:41;;;;;;;11.32;2.22;;;;;;;15.80;82.35;100637.63;5091311;28;20493;-60
2024/03/15 08:01:09;;;;;;;17.65;3.03;;;;;;;15.65;82.01;100630.81;5081635;28;20063;-63
2024/03/15 08:03:37;;;;;;;12.65;2.55;;;;;;;15.77;81.94;100622.47;5084539;28;20067;-61
2024/03/15 08:06:06;;;;;;;14.27;2.63;;;;;;;15.67;82.27;100627.69;5087859;28;20059;-61
2024/03/15 08:08:33;;;;;;;20.73;3.25;;;;;;;15.48;82.64;100635.81;5072794;28;20060;-63
2024/03/15 08:11:01;;;;;;;12.38;2.92;;;;;;;15.63;83.34;100638.69;5078233;28;20056;-63
2024/03/15 08:13:33;;;;;;;12.80;2.88;;;;;;;15.86;82.21;100647.34;5079325;28;20083;-62
2024/03/15 08:16:23;;;;;;;12.50;2.53;;;;;;;15.99;81.77;100651.69;5077388;28;20051;-64
2024/03/15 08:18:53;;;;;;;20.73;3.17;;;;;;;15.81;82.74;100644.81;5082213;28;20060;-62
2024/03/15 08:21:24;;;;;;;;;;;;;;;15.73;83.71;100654.88;5092167;28;20050;-64
2024/03/15 08:23:52;;;;;;;17.17;3.03;;;;;;;15.58;84.50;100657.56;5091440;28;19930;-66
2024/03/15 08:26:20;;;;;;;19.13;3.42;;;;;;;15.88;83.82;100646.97;5089076;28;20479;-63
2024/03/15 08:28:49;;;;;;;13.98;2.83;;;;;;;15.85;83.21;100651.25;5076744;28;20060;-61
2024/03/15 08:31:16;;;;;;;13.60;2.47;;;;;;;16.01;83.49;100665.22;5082725;28;20055;-61
2024/03/15 08:33:44;;;;;;;13.48;3.08;;;;;;;15.79;86.50;100667.34;5087985;28;20737;-61
2024/03/15 08:36:12;;;;;;;13.27;4.25;;;;;;;15.65;89.31;100657.78;5077979;28;20056;-60
2024/03/15 08:38:40;;;;;;;9.07;2.38;;;;;;;15.76;90.11;100662.50;5084097;28;20048;-61
2024/03/15 08:41:07;;;;;;;14.23;3.38;;;;;;;15.58;90.78;100663.91;5077876;28;20540;-62
2024/03/15 08:43:36;;;;;;;16.88;3.00;;;;;;;15.49;91.77;100663.22;5076645;28;20314;-62
2024/03/15 08:46:06;;;;;;;14.63;2.92;;;;;;;15.39;92.62;100658.13;5099084;27;20051;-61
2024/03/15 08:48:34;;;;;;;14.93;2.95;;;;;;;15.42;92.02;100663.00;5077538;28;20056;-63
2024/03/15 08:51:03;;;;;;;21.08;3.33;;;;;;;15.49;91.66;100666.00;5084691;28;20051;-63
2024/03/15 08:53:32;;;;;;;13.70;2.87;;;;;;;15.41;90.86;100668.91;5077127;28;20509;-62
2024/03/15 08:56:00;;;;;;;15.38;2.78;;;;;;;15.62;89.89;100670.38;5074805;28;20059;-62
2024/03/15 08:58:27;;;;;;;21.13;3.83;;;;;;;15.59;89.97;100673.84;5091342;28;20044;-60
2024/03/15 09:00:55;;;;;;;15.70;3.25;;;;;;;15.78;89.39;100668.50;5081520;28;20059;-61
2024/03/15 09:03:23;;;;;;;16.77;3.28;;;;;;;16.08;87.89;100665.44;5081126;28;20059;-63
2024/03/15 09:05:51;;;;;;;17.77;3.03;;;;;;;16.27;86.48;100666.44;5082327;28;20052;-61
2024/03/15 09:08:20;;;;;;;18.02;3.33;;;;;;;16.17;85.39;100682.78;5074621;28;20049;-61
2024/03/15 09:10:47;;;;;;;10.30;2.33;;;;;;;16.24;84.71;100669.09;5075082;28;20483;-62
2024/03/15 09:13:16;;;;;;;17.20;3.40;;;;;;;16.29;83.95;100666.91;5090201;28;20063;-63
2024/03/15 09:15:44;;;;;;;15.00;3.50;;;;;;;16.31;84.01;100675.69;5088449;28;20048;-64
2024/03/15 09:18:11;;;;;;;17.92;3.00;;;;;;;16.02;84.81;100675.19;5077660;28;20078;-61
2024/03/15 09:20:42;;;;;;;14.70;2.75;;;;;;;15.96;86.40;100682.13;5081197;28;20044;-63
2024/03/15 09:23:12;;;;;;;16.50;3.05;;;;;;;15.98;87.55;100682.59;5078691;28;20045;-62
2024/03/15 09:25:42;;;;;;;14.82;3.05;;;;;;;15.84;89.87;100684.94;5085235;28;20048;-62
2024/03/15 09:28:12;;;;;;;19.13;3.28;;;;;;;15.83;92.01;100678.56;5083726;28;20511;-61
2024/03/15 09:30:47;;;;;;;15.25;3.67;;;;;;;15.70;92.67;100685.31;5072399;28;20515;-61
2024/03/15 09:33:34;;;;;;;14.52;3.38;;;;;;;15.63;94.14;100680.34;5080195;28;20054;-65
2024/03/15 09:36:04;;;;;;;17.65;3.75;;;;;;;15.53;94.30;100686.34;5088684;28;20044;-62
2024/03/15 09:38:34;;;;;;;13.35;2.42;;;;;;;15.48;95.27;100686.56;5081209;28;20439;-62
2024/03/15 09:41:05;;;;;;;13.30;2.97;;;;;;;15.48;96.43;100671.91;5077899;28;20052;-61
2024/03/15 09:43:34;;;;;;;14.05;3.10;;;;;;;15.44;96.91;100693.19;5077812;28;20063;-62
2024/03/15 09:46:02;;;;;;;15.88;3.70;;;;;;;15.48;97.11;100671.91;5090170;28;20052;-62
2024/03/15 09:48:30;;;;;;;16.00;3.33;;;;;;;15.50;96.92;100675.94;5090194;28;20362;-62
2024/03/15 09:51:03;;;;;;;17.85;3.75;;;;;;;15.91;94.89;100669.31;5088428;28;20063;-61
2024/03/15 09:53:31;;;;;;;18.50;4.00;;;;;;;15.96;91.89;100660.72;5091871;28;20786;-62
2024/03/15 09:55:58;;;;;;;20.00;3.50;;;;;;;16.04;90.49;100667.31;5082039;28;20044;-64
2024/03/15 09:58:26;;;;;;;15.07;2.78;;;;;;;15.97;90.36;100669.88;5080290;28;20059;-64
2024/03/15 10:00:54;;;;;;;20.60;2.90;;;;;;;16.03;89.68;100672.06;5071093;28;20059;-62
2024/03/15 10:03:22;;;;;;;17.33;2.95;;;;;;;16.40;88.82;100673.59;5072135;28;20045;-64
2024/03/15 10:05:50;;;;;;;17.27;3.20;;;;;;;16.27;87.95;100668.41;5083675;28;20048;-62
2024/03/15 10:08:17;;;;;;;12.90;2.50;;;;;;;16.69;85.77;100673.25;5086101;28;20052;-62
2024/03/15 10:10:46;;;;;;;11.30;2.63;;;;;;;16.63;84.90;100659.94;5086741;28;20051;-62
2024/03/15 10:13:16;;;;;;;15.73;2.92;;;;;;;16.51;84.62;100662.78;5089811;28;20041;-62
2024/03/15 10:15:45;;;;;;;13.80;2.55;;;;;;;16.75;84.33;100660.69;5070019;28;20045;-61
2024/03/15 10:18:14;;;;;;;11.65;2.65;;;;;;;16.84;80.99;100666.91;5073562;28;20063;-61
2024/03/15 10:20:41;;;;;;;16.00;2.53;;;;;;;16.46;81.72;100663.84;5067442;28;20052;-61
2024/03/15 10:23:10;;;;;;;10.77;2.33;;;;;;;16.57;80.82;100664.16;5086251;28;20055;-64
2024/03/15 10:25:38;;;;;;;10.37;2.47;;;;;;;16.39;81.55;100665.56;5088038;28;20403;-61
2024/03/15 10:28:10;;;;;;;11.50;2.45;;;;;;;16.21;80.62;100665.06;5090122;28;20044;-63
2024/03/15 10:30:42;;;;;;;12.35;2.80;;;;;;;16.16;81.16;100679.19;5085433;28;20052;-62
2024/03/15 10:33:09;;;;;;;11.68;2.40;;;;;;;16.41;80.65;100664.06;5089497;28;20051;-63
2024/03/15 10:35:38;;;;;;;16.17;2.55;;;;;;;16.36;80.76;100669.06;5088486;28;20048;-63
2024/03/15 10:38:05;;;;;;;14.18;2.95;;;;;;;16.58;80.31;100655.44;5104831;28;20048;-63
2024/03/15 10:40:35;;;;;;;15.82;2.67;;;;;;;16.58;80.50;100663.00;5089581;28;20056;-63
2024/03/15 10:43:08;;;;;;;17.05;3.17;;;;;;;16.81;79.63;100659.25;5088724;28;20048;-63
2024/03/15 10:45:35;;;;;;;15.63;3.20;;;;;;;16.93;77.32;100658.38;5081719;28;20060;-62
2024/03/15 10:48:12;;;;;;;17.48;3.20;;;;;;;17.27;76.10;100660.47;5074674;28;20055;-63
2024/03/15 10:50:41;;;;;;;16.13;2.83;;;;;;;17.53;74.56;100652.41;5078900;28;20060;-63
2024/03/15 10:53:15;;;;;;;14.95;3.00;;;;;;;17.40;74.33;100659.19;5086909;28;20044;-63
2024/03/15 10:55:47;;;;;;;16.23;3.08;;;;;;;17.69;76.71;100652.38;5084497;28;20047;-62
2024/03/15 10:58:15;;;;;;;17.05;2.72;;;;;;;17.66;71.60;100647.53;5069656;28;20052;-63
2024/03/15 11:00:42;;;;;;;12.57;2.65;;;;;;;17.75;69.49;100654.50;5052235;28;20060;-63
2024/03/15 11:03:15;;;;;;;14.18;2.22;;;;;;;17.77;69.11;100643.81;5085348;28;20058;-64
2024/03/15 11:05:43;;;;;;;11.27;2.85;;;;;;;17.84;68.41;100652.34;5087919;28;20585;-65
2024/03/15 11:08:19;;;;;;;15.10;2.70;;;;;;;17.80;68.29;100650.66;5088547;28;20566;-63
2024/03/15 11:10:55;;;;;;;11.73;2.80;;;;;;;17.67;68.73;100649.97;5080188;28;20526;-63
2024/03/15 11:13:24;;;;;;;13.55;2.65;;;;;;;17.84;69.16;100649.56;5076216;28;20046;-63
2024/03/15 11:15:55;;;;;;;12.60;2.90;;;;;;;18.19;68.17;100654.28;5084594;28;20055;-66
2024/03/15 11:18:23;;;;;;;14.20;2.60;;;;;;;17.97;68.33;100648.25;5053395;28;20049;-69
2024/03/15 11:20:53;;;;;;;12.32;2.90;;;;;;;17.86;69.57;100646.41;5089344;28;20056;-61
2024/03/15 11:23:24;;;;;;;18.15;3.72;;;;;;;17.63;70.49;100651.84;5092205;28;20064;-61
2024/03/15 11:25:59;;;;;;;19.58;4.32;;;;;;;18.07;69.84;100640.47;5077820;28;20096;-59
2024/03/15 11:28:29;;;;;;;19.85;3.83;;;;;;;18.23;68.10;100638.44;5087280;28;20054;-62
2024/03/15 11:30:59;;;;;;;21.95;3.53;;;;;;;18.02;69.67;100635.19;5079020;28;20052;-61